sensor_id;sensor_type;location;lat;lon;timestamp;temperature;humidity
1626;DHT22;806;48.770;9.156;2023-04-24T00:00:20;12.00;99.90
1626;DHT22;806;48.770;9.156;2023-04-24T00:02:48;11.90;99.90
1626;DHT22;806;48.770;9.156;2023-04-24T00:05:16;12.10;99.90
1626;DHT22;806;48.770;9.156;2023-04-24T00:07:44;12.20;99.90
1626;DHT22;806;48.770;9.156;2023-04-24T00:10:12;12.30;99.90
1626;DHT22;806;48.770;9.156;2023-04-24T00:12:39;12.40;99.90
1626;DHT22;806;48.770;9.156;2023-04-24T00:15:07;12.40;99.90
1626;DHT22;806;48.770;9.156;2023-04-24T00:17:34;12.40;99.90
1626;DHT22;806;48.770;9.156;2023-04-24T00:20:03;12.40;99.90
1626;DHT22;806;48.770;9.156;2023-04-24T00:22:32;12.40;99.90
1626;DHT22;806;48.770;9.156;2023-04-24T00:24:59;12.30;99.90
1626;DHT22;806;48.770;9.156;2023-04-24T00:27:26;12.20;99.90
1626;DHT22;806;48.770;9.156;2023-04-24T00:29:53;12.30;99.90
1626;DHT22;806;48.770;9.156;2023-04-24T00:32:20;12.40;99.90
1626;DHT22;806;48.770;9.156;2023-04-24T00:34:47;12.50;99.90
1626;DHT22;806;48.770;9.156;2023-04-24T00:37:16;12.50;99.90
1626;DHT22;806;48.770;9.156;2023-04-24T00:39:43;12.50;99.90
1626;DHT22;806;48.770;9.156;2023-04-24T00:42:10;12.40;99.90
1626;DHT22;806;48.770;9.156;2023-04-24T00:44:37;12.40;99.90
1626;DHT22;806;48.770;9.156;2023-04-24T00:47:05;12.30;99.90
1626;DHT22;806;48.770;9.156;2023-04-24T00:49:32;12.30;99.90
1626;DHT22;806;48.770;9.156;2023-04-24T00:51:59;12.40;99.90
1626;DHT22;806;48.770;9.156;2023-04-24T00:54:28;12.40;99.90
1626;DHT22;806;48.770;9.156;2023-04-24T00:56:55;12.40;99.90
1626;DHT22;806;48.770;9.156;2023-04-24T00:59:22;12.30;99.90
1626;DHT22;806;48.770;9.156;2023-04-24T01:01:49;12.40;99.90
1626;DHT22;806;48.770;9.156;2023-04-24T01:04:17;12.50;99.90
1626;DHT22;806;48.770;9.156;2023-04-24T01:06:45;12.40;99.90
1626;DHT22;806;48.770;9.156;2023-04-24T01:09:12;12.40;99.90
1626;DHT22;806;48.770;9.156;2023-04-24T01:11:41;12.30;99.90
1626;DHT22;806;48.770;9.156;2023-04-24T01:14:09;12.30;99.90
1626;DHT22;806;48.770;9.156;2023-04-24T01:16:36;12.30;99.90
1626;DHT22;806;48.770;9.156;2023-04-24T01:19:05;12.20;99.90
1626;DHT22;806;48.770;9.156;2023-04-24T01:21:36;12.30;99.90
1626;DHT22;806;48.770;9.156;2023-04-24T01:24:06;12.30;99.90
1626;DHT22;806;48.770;9.156;2023-04-24T01:26:33;12.30;99.90
1626;DHT22;806;48.770;9.156;2023-04-24T01:29:00;12.30;99.90
1626;DHT22;806;48.770;9.156;2023-04-24T01:31:28;12.30;99.90
1626;DHT22;806;48.770;9.156;2023-04-24T01:33:56;12.20;99.90
1626;DHT22;806;48.770;9.156;2023-04-24T01:36:24;12.10;99.90
1626;DHT22;806;48.770;9.156;2023-04-24T01:38:52;12.10;99.90
1626;DHT22;806;48.770;9.156;2023-04-24T01:41:21;12.00;99.90
1626;DHT22;806;48.770;9.156;2023-04-24T01:43:49;12.00;99.90
1626;DHT22;806;48.770;9.156;2023-04-24T01:46:16;12.00;99.90
1626;DHT22;806;48.770;9.156;2023-04-24T01:48:45;12.10;99.90
1626;DHT22;806;48.770;9.156;2023-04-24T01:51:12;12.10;99.90
1626;DHT22;806;48.770;9.156;2023-04-24T01:53:41;12.10;99.90
1626;DHT22;806;48.770;9.156;2023-04-24T01:56:09;12.10;99.90
1626;DHT22;806;48.770;9.156;2023-04-24T01:58:37;12.00;99.90
1626;DHT22;806;48.770;9.156;2023-04-24T02:01:06;12.10;99.90
1626;DHT22;806;48.770;9.156;2023-04-24T02:03:33;12.00;99.90
1626;DHT22;806;48.770;9.156;2023-04-24T02:06:00;11.90;99.90
1626;DHT22;806;48.770;9.156;2023-04-24T02:08:27;12.00;99.90
1626;DHT22;806;48.770;9.156;2023-04-24T02:10:54;11.90;99.90
1626;DHT22;806;48.770;9.156;2023-04-24T02:13:22;11.90;99.90
1626;DHT22;806;48.770;9.156;2023-04-24T02:15:50;11.80;99.90
1626;DHT22;806;48.770;9.156;2023-04-24T02:18:17;11.80;99.90
1626;DHT22;806;48.770;9.156;2023-04-24T02:20:44;11.70;99.90
1626;DHT22;806;48.770;9.156;2023-04-24T02:23:11;11.70;99.90
1626;DHT22;806;48.770;9.156;2023-04-24T02:25:38;11.70;99.90
1626;DHT22;806;48.770;9.156;2023-04-24T02:28:05;11.80;99.90
1626;DHT22;806;48.770;9.156;2023-04-24T02:30:33;11.80;99.90
1626;DHT22;806;48.770;9.156;2023-04-24T02:33:01;11.90;99.90
1626;DHT22;806;48.770;9.156;2023-04-24T02:35:29;11.90;99.90
1626;DHT22;806;48.770;9.156;2023-04-24T02:37:56;11.80;99.90
1626;DHT22;806;48.770;9.156;2023-04-24T02:40:23;11.80;99.90
1626;DHT22;806;48.770;9.156;2023-04-24T02:42:50;11.80;99.90
1626;DHT22;806;48.770;9.156;2023-04-24T02:45:17;11.80;99.90
1626;DHT22;806;48.770;9.156;2023-04-24T02:47:44;11.90;99.90
1626;DHT22;806;48.770;9.156;2023-04-24T02:50:13;11.90;99.90
1626;DHT22;806;48.770;9.156;2023-04-24T02:52:40;12.00;99.90
1626;DHT22;806;48.770;9.156;2023-04-24T02:55:07;11.90;99.90
1626;DHT22;806;48.770;9.156;2023-04-24T02:57:34;11.90;99.90
1626;DHT22;806;48.770;9.156;2023-04-24T03:00:01;11.80;99.90
1626;DHT22;806;48.770;9.156;2023-04-24T03:02:32;11.70;99.90
1626;DHT22;806;48.770;9.156;2023-04-24T03:04:59;11.60;99.90
1626;DHT22;806;48.770;9.156;2023-04-24T03:07:29;11.60;99.90
1626;DHT22;806;48.770;9.156;2023-04-24T03:09:56;11.50;99.90
1626;DHT22;806;48.770;9.156;2023-04-24T03:12:24;11.30;99.90
1626;DHT22;806;48.770;9.156;2023-04-24T03:14:51;11.20;99.90
1626;DHT22;806;48.770;9.156;2023-04-24T03:17:18;11.20;99.90
1626;DHT22;806;48.770;9.156;2023-04-24T03:19:45;11.20;99.90
1626;DHT22;806;48.770;9.156;2023-04-24T03:22:12;11.20;99.90
1626;DHT22;806;48.770;9.156;2023-04-24T03:24:40;11.40;99.90
1626;DHT22;806;48.770;9.156;2023-04-24T03:27:07;11.40;99.90
1626;DHT22;806;48.770;9.156;2023-04-24T03:29:34;11.40;99.90
1626;DHT22;806;48.770;9.156;2023-04-24T03:32:01;11.30;99.90
1626;DHT22;806;48.770;9.156;2023-04-24T03:34:29;11.30;99.90
1626;DHT22;806;48.770;9.156;2023-04-24T03:36:56;11.20;99.90
1626;DHT22;806;48.770;9.156;2023-04-24T03:39:23;11.20;99.90
1626;DHT22;806;48.770;9.156;2023-04-24T03:41:52;11.30;99.90
1626;DHT22;806;48.770;9.156;2023-04-24T03:44:19;11.30;99.90
1626;DHT22;806;48.770;9.156;2023-04-24T03:46:46;11.40;99.90
1626;DHT22;806;48.770;9.156;2023-04-24T03:49:13;11.40;99.90
1626;DHT22;806;48.770;9.156;2023-04-24T03:51:40;11.50;99.90
1626;DHT22;806;48.770;9.156;2023-04-24T03:54:07;11.40;99.90
1626;DHT22;806;48.770;9.156;2023-04-24T03:56:34;11.30;99.90
1626;DHT22;806;48.770;9.156;2023-04-24T03:59:02;11.20;99.90
1626;DHT22;806;48.770;9.156;2023-04-24T04:01:29;11.10;99.90
1626;DHT22;806;48.770;9.156;2023-04-24T04:03:56;11.00;99.90
1626;DHT22;806;48.770;9.156;2023-04-24T04:06:23;11.00;99.90
1626;DHT22;806;48.770;9.156;2023-04-24T04:08:50;11.00;99.90
1626;DHT22;806;48.770;9.156;2023-04-24T04:11:17;11.20;99.90
1626;DHT22;806;48.770;9.156;2023-04-24T04:13:45;11.30;99.90
1626;DHT22;806;48.770;9.156;2023-04-24T04:16:14;11.20;99.90
1626;DHT22;806;48.770;9.156;2023-04-24T04:18:43;11.20;99.90
1626;DHT22;806;48.770;9.156;2023-04-24T04:21:10;11.20;99.90
1626;DHT22;806;48.770;9.156;2023-04-24T04:23:37;11.30;99.90
1626;DHT22;806;48.770;9.156;2023-04-24T04:26:05;11.30;99.90
1626;DHT22;806;48.770;9.156;2023-04-24T04:28:33;11.20;99.90
1626;DHT22;806;48.770;9.156;2023-04-24T04:31:00;11.30;99.90
1626;DHT22;806;48.770;9.156;2023-04-24T04:33:29;11.30;99.90
1626;DHT22;806;48.770;9.156;2023-04-24T04:35:57;11.30;99.90
1626;DHT22;806;48.770;9.156;2023-04-24T04:38:24;11.30;99.90
1626;DHT22;806;48.770;9.156;2023-04-24T04:40:52;11.30;99.90
1626;DHT22;806;48.770;9.156;2023-04-24T04:43:19;11.40;99.90
1626;DHT22;806;48.770;9.156;2023-04-24T04:45:46;11.40;99.90
1626;DHT22;806;48.770;9.156;2023-04-24T04:48:13;11.40;99.90
1626;DHT22;806;48.770;9.156;2023-04-24T04:50:44;11.50;99.90
1626;DHT22;806;48.770;9.156;2023-04-24T04:53:11;11.50;99.90
1626;DHT22;806;48.770;9.156;2023-04-24T04:55:39;11.50;99.90
1626;DHT22;806;48.770;9.156;2023-04-24T04:58:06;11.40;99.90
1626;DHT22;806;48.770;9.156;2023-04-24T05:00:33;11.20;99.90
1626;DHT22;806;48.770;9.156;2023-04-24T05:03:01;10.90;99.90
1626;DHT22;806;48.770;9.156;2023-04-24T05:05:28;10.90;99.90
1626;DHT22;806;48.770;9.156;2023-04-24T05:07:57;10.70;99.90
1626;DHT22;806;48.770;9.156;2023-04-24T05:10:24;10.70;99.90
1626;DHT22;806;48.770;9.156;2023-04-24T05:12:51;10.70;99.90
1626;DHT22;806;48.770;9.156;2023-04-24T05:15:18;10.70;99.90
1626;DHT22;806;48.770;9.156;2023-04-24T05:17:45;10.60;99.90
1626;DHT22;806;48.770;9.156;2023-04-24T05:20:12;10.50;99.90
1626;DHT22;806;48.770;9.156;2023-04-24T05:22:40;10.70;99.90
1626;DHT22;806;48.770;9.156;2023-04-24T05:25:09;10.80;99.90
1626;DHT22;806;48.770;9.156;2023-04-24T05:27:38;10.90;99.90
1626;DHT22;806;48.770;9.156;2023-04-24T05:30:07;11.00;99.90
1626;DHT22;806;48.770;9.156;2023-04-24T05:32:35;11.00;99.90
1626;DHT22;806;48.770;9.156;2023-04-24T05:35:02;10.90;99.90
1626;DHT22;806;48.770;9.156;2023-04-24T05:37:29;10.80;99.90
1626;DHT22;806;48.770;9.156;2023-04-24T05:39:56;10.80;99.90
1626;DHT22;806;48.770;9.156;2023-04-24T05:42:24;10.80;99.90
1626;DHT22;806;48.770;9.156;2023-04-24T05:44:51;10.60;99.90
1626;DHT22;806;48.770;9.156;2023-04-24T05:47:19;10.50;99.90
1626;DHT22;806;48.770;9.156;2023-04-24T05:49:47;10.50;99.90
1626;DHT22;806;48.770;9.156;2023-04-24T05:52:14;10.60;99.90
1626;DHT22;806;48.770;9.156;2023-04-24T05:54:41;10.60;99.90
1626;DHT22;806;48.770;9.156;2023-04-24T05:57:08;10.70;99.90
1626;DHT22;806;48.770;9.156;2023-04-24T05:59:37;10.90;99.90
1626;DHT22;806;48.770;9.156;2023-04-24T06:02:05;10.90;99.90
1626;DHT22;806;48.770;9.156;2023-04-24T06:04:32;10.90;99.90
1626;DHT22;806;48.770;9.156;2023-04-24T06:06:59;10.90;99.90
1626;DHT22;806;48.770;9.156;2023-04-24T06:09:26;11.00;99.90
1626;DHT22;806;48.770;9.156;2023-04-24T06:11:54;10.90;99.90
1626;DHT22;806;48.770;9.156;2023-04-24T06:14:22;10.80;99.90
1626;DHT22;806;48.770;9.156;2023-04-24T06:16:50;10.70;99.90
1626;DHT22;806;48.770;9.156;2023-04-24T06:19:17;10.70;99.90
1626;DHT22;806;48.770;9.156;2023-04-24T06:21:44;10.60;99.90
1626;DHT22;806;48.770;9.156;2023-04-24T06:24:14;10.50;99.90
1626;DHT22;806;48.770;9.156;2023-04-24T06:26:42;10.60;99.90
1626;DHT22;806;48.770;9.156;2023-04-24T06:29:09;10.70;99.90
1626;DHT22;806;48.770;9.156;2023-04-24T06:31:36;10.90;99.90
1626;DHT22;806;48.770;9.156;2023-04-24T06:34:04;10.90;99.90
1626;DHT22;806;48.770;9.156;2023-04-24T06:36:32;11.00;99.90
1626;DHT22;806;48.770;9.156;2023-04-24T06:39:00;11.20;99.90
1626;DHT22;806;48.770;9.156;2023-04-24T06:41:28;11.20;99.90
1626;DHT22;806;48.770;9.156;2023-04-24T06:43:55;11.20;99.90
1626;DHT22;806;48.770;9.156;2023-04-24T06:46:22;11.30;99.90
1626;DHT22;806;48.770;9.156;2023-04-24T06:48:51;11.60;99.90
1626;DHT22;806;48.770;9.156;2023-04-24T06:51:22;11.90;99.90
1626;DHT22;806;48.770;9.156;2023-04-24T06:53:50;12.30;99.90
1626;DHT22;806;48.770;9.156;2023-04-24T06:56:18;12.30;99.90
1626;DHT22;806;48.770;9.156;2023-04-24T06:58:45;12.60;99.90
1626;DHT22;806;48.770;9.156;2023-04-24T07:01:12;12.60;99.90
1626;DHT22;806;48.770;9.156;2023-04-24T07:03:39;12.70;99.90
1626;DHT22;806;48.770;9.156;2023-04-24T07:06:08;12.80;99.90
1626;DHT22;806;48.770;9.156;2023-04-24T07:08:38;12.90;99.90
1626;DHT22;806;48.770;9.156;2023-04-24T07:11:05;13.00;99.90
1626;DHT22;806;48.770;9.156;2023-04-24T07:13:33;13.10;99.90
1626;DHT22;806;48.770;9.156;2023-04-24T07:16:01;13.10;99.90
1626;DHT22;806;48.770;9.156;2023-04-24T07:18:28;12.80;99.90
1626;DHT22;806;48.770;9.156;2023-04-24T07:20:55;12.80;99.90
1626;DHT22;806;48.770;9.156;2023-04-24T07:23:22;12.80;99.90
1626;DHT22;806;48.770;9.156;2023-04-24T07:25:50;12.90;99.90
1626;DHT22;806;48.770;9.156;2023-04-24T07:28:17;12.80;99.90
1626;DHT22;806;48.770;9.156;2023-04-24T07:30:44;12.80;99.90
1626;DHT22;806;48.770;9.156;2023-04-24T07:33:11;12.80;99.90
1626;DHT22;806;48.770;9.156;2023-04-24T07:35:38;12.70;99.90
1626;DHT22;806;48.770;9.156;2023-04-24T07:38:06;12.90;99.90
1626;DHT22;806;48.770;9.156;2023-04-24T07:40:33;12.90;99.90
1626;DHT22;806;48.770;9.156;2023-04-24T07:43:01;13.20;99.90
1626;DHT22;806;48.770;9.156;2023-04-24T07:45:28;13.40;99.90
1626;DHT22;806;48.770;9.156;2023-04-24T07:47:56;13.40;99.90
1626;DHT22;806;48.770;9.156;2023-04-24T07:50:23;13.70;99.90
1626;DHT22;806;48.770;9.156;2023-04-24T07:52:50;13.80;99.90
1626;DHT22;806;48.770;9.156;2023-04-24T07:55:18;13.90;99.90
1626;DHT22;806;48.770;9.156;2023-04-24T07:57:45;13.80;99.90
1626;DHT22;806;48.770;9.156;2023-04-24T08:00:14;13.80;99.90
1626;DHT22;806;48.770;9.156;2023-04-24T08:02:41;13.70;99.90
1626;DHT22;806;48.770;9.156;2023-04-24T08:05:08;13.50;99.90
1626;DHT22;806;48.770;9.156;2023-04-24T08:07:36;13.50;99.90
1626;DHT22;806;48.770;9.156;2023-04-24T08:10:03;13.50;99.90
1626;DHT22;806;48.770;9.156;2023-04-24T08:12:30;13.40;99.90
1626;DHT22;806;48.770;9.156;2023-04-24T08:14:58;13.20;99.90
1626;DHT22;806;48.770;9.156;2023-04-24T08:17:26;12.90;99.90
1626;DHT22;806;48.770;9.156;2023-04-24T08:19:53;13.00;99.90
1626;DHT22;806;48.770;9.156;2023-04-24T08:22:26;13.10;99.90
1626;DHT22;806;48.770;9.156;2023-04-24T08:24:53;13.30;99.90
1626;DHT22;806;48.770;9.156;2023-04-24T08:27:21;13.50;99.90
1626;DHT22;806;48.770;9.156;2023-04-24T08:29:49;13.40;99.90
1626;DHT22;806;48.770;9.156;2023-04-24T08:32:16;13.10;99.90
1626;DHT22;806;48.770;9.156;2023-04-24T08:34:45;13.20;99.90
1626;DHT22;806;48.770;9.156;2023-04-24T08:37:12;13.40;99.90
1626;DHT22;806;48.770;9.156;2023-04-24T08:39:39;13.30;99.90
1626;DHT22;806;48.770;9.156;2023-04-24T08:42:06;13.20;99.90
1626;DHT22;806;48.770;9.156;2023-04-24T08:44:34;13.30;99.90
1626;DHT22;806;48.770;9.156;2023-04-24T08:47:02;13.40;99.90
1626;DHT22;806;48.770;9.156;2023-04-24T08:49:29;13.30;99.90
1626;DHT22;806;48.770;9.156;2023-04-24T08:51:59;13.10;99.90
1626;DHT22;806;48.770;9.156;2023-04-24T08:54:27;13.00;99.90
1626;DHT22;806;48.770;9.156;2023-04-24T08:56:58;13.00;99.90
1626;DHT22;806;48.770;9.156;2023-04-24T08:59:26;13.20;99.90
1626;DHT22;806;48.770;9.156;2023-04-24T09:01:55;13.30;99.90
1626;DHT22;806;48.770;9.156;2023-04-24T09:04:23;13.10;99.90
1626;DHT22;806;48.770;9.156;2023-04-24T09:06:51;13.20;99.90
1626;DHT22;806;48.770;9.156;2023-04-24T09:09:20;13.10;99.90
1626;DHT22;806;48.770;9.156;2023-04-24T09:11:49;13.10;99.90
1626;DHT22;806;48.770;9.156;2023-04-24T09:14:16;13.00;99.90
1626;DHT22;806;48.770;9.156;2023-04-24T09:16:44;12.90;99.90
1626;DHT22;806;48.770;9.156;2023-04-24T09:19:11;12.70;99.90
1626;DHT22;806;48.770;9.156;2023-04-24T09:21:38;12.70;99.90
1626;DHT22;806;48.770;9.156;2023-04-24T09:24:07;12.80;99.90
1626;DHT22;806;48.770;9.156;2023-04-24T09:26:36;12.60;99.90
1626;DHT22;806;48.770;9.156;2023-04-24T09:29:03;12.50;99.90
1626;DHT22;806;48.770;9.156;2023-04-24T09:31:31;12.40;99.90
1626;DHT22;806;48.770;9.156;2023-04-24T09:33:59;12.20;99.90
1626;DHT22;806;48.770;9.156;2023-04-24T09:36:28;12.30;99.90
1626;DHT22;806;48.770;9.156;2023-04-24T09:38:58;12.20;99.90
1626;DHT22;806;48.770;9.156;2023-04-24T09:41:26;12.20;99.90
1626;DHT22;806;48.770;9.156;2023-04-24T09:43:56;12.40;99.90
1626;DHT22;806;48.770;9.156;2023-04-24T09:46:29;12.70;99.90
1626;DHT22;806;48.770;9.156;2023-04-24T09:48:57;13.00;99.90
1626;DHT22;806;48.770;9.156;2023-04-24T09:51:34;13.30;99.90
1626;DHT22;806;48.770;9.156;2023-04-24T09:54:04;13.30;99.90
1626;DHT22;806;48.770;9.156;2023-04-24T09:56:34;13.10;99.90
1626;DHT22;806;48.770;9.156;2023-04-24T09:59:07;13.10;99.90
1626;DHT22;806;48.770;9.156;2023-04-24T10:01:34;13.20;99.90
1626;DHT22;806;48.770;9.156;2023-04-24T10:04:02;13.50;99.90
1626;DHT22;806;48.770;9.156;2023-04-24T10:06:34;13.50;99.90
1626;DHT22;806;48.770;9.156;2023-04-24T10:09:02;13.50;99.90
1626;DHT22;806;48.770;9.156;2023-04-24T10:11:30;13.50;99.90
1626;DHT22;806;48.770;9.156;2023-04-24T10:13:57;13.50;99.90
1626;DHT22;806;48.770;9.156;2023-04-24T10:16:27;13.50;99.90
1626;DHT22;806;48.770;9.156;2023-04-24T10:18:54;13.90;99.90
1626;DHT22;806;48.770;9.156;2023-04-24T10:21:22;14.00;99.90
1626;DHT22;806;48.770;9.156;2023-04-24T10:23:50;14.20;99.90
1626;DHT22;806;48.770;9.156;2023-04-24T10:26:18;14.40;99.90
1626;DHT22;806;48.770;9.156;2023-04-24T10:28:46;14.70;99.90
1626;DHT22;806;48.770;9.156;2023-04-24T10:31:14;14.80;99.90
1626;DHT22;806;48.770;9.156;2023-04-24T10:33:43;14.90;99.90
1626;DHT22;806;48.770;9.156;2023-04-24T10:36:13;14.80;99.90
1626;DHT22;806;48.770;9.156;2023-04-24T10:38:42;14.80;99.90
1626;DHT22;806;48.770;9.156;2023-04-24T10:41:13;14.20;99.90
1626;DHT22;806;48.770;9.156;2023-04-24T10:43:42;13.90;99.90
1626;DHT22;806;48.770;9.156;2023-04-24T10:46:09;14.00;99.90
1626;DHT22;806;48.770;9.156;2023-04-24T10:48:44;14.10;99.90
1626;DHT22;806;48.770;9.156;2023-04-24T10:51:21;14.10;99.90
1626;DHT22;806;48.770;9.156;2023-04-24T10:53:50;14.00;99.90
1626;DHT22;806;48.770;9.156;2023-04-24T10:56:18;14.00;99.90
1626;DHT22;806;48.770;9.156;2023-04-24T10:58:49;13.90;99.90
1626;DHT22;806;48.770;9.156;2023-04-24T11:01:24;14.00;99.90
1626;DHT22;806;48.770;9.156;2023-04-24T11:03:55;13.80;99.90
1626;DHT22;806;48.770;9.156;2023-04-24T11:06:29;14.00;99.90
1626;DHT22;806;48.770;9.156;2023-04-24T11:09:05;14.10;99.90
1626;DHT22;806;48.770;9.156;2023-04-24T11:11:33;13.90;99.90
1626;DHT22;806;48.770;9.156;2023-04-24T11:14:03;13.90;99.90
1626;DHT22;806;48.770;9.156;2023-04-24T11:16:33;14.10;99.90
1626;DHT22;806;48.770;9.156;2023-04-24T11:19:04;14.20;99.90
1626;DHT22;806;48.770;9.156;2023-04-24T11:21:32;14.10;99.90
1626;DHT22;806;48.770;9.156;2023-04-24T11:27:12;14.40;99.90
1626;DHT22;806;48.770;9.156;2023-04-24T11:29:45;14.60;99.90
1626;DHT22;806;48.770;9.156;2023-04-24T11:32:17;14.80;99.90
1626;DHT22;806;48.770;9.156;2023-04-24T11:34:48;14.90;99.90
1626;DHT22;806;48.770;9.156;2023-04-24T11:37:15;15.70;99.90
1626;DHT22;806;48.770;9.156;2023-04-24T11:39:42;15.60;99.90
1626;DHT22;806;48.770;9.156;2023-04-24T11:42:10;15.20;99.90
1626;DHT22;806;48.770;9.156;2023-04-24T11:44:37;15.20;99.90
1626;DHT22;806;48.770;9.156;2023-04-24T11:47:05;15.10;99.90
1626;DHT22;806;48.770;9.156;2023-04-24T11:49:32;14.60;99.90
1626;DHT22;806;48.770;9.156;2023-04-24T11:52:01;14.20;99.90
1626;DHT22;806;48.770;9.156;2023-04-24T11:54:29;14.00;99.90
1626;DHT22;806;48.770;9.156;2023-04-24T11:56:56;14.10;99.90
1626;DHT22;806;48.770;9.156;2023-04-24T11:59:23;14.20;99.90
1626;DHT22;806;48.770;9.156;2023-04-24T12:01:50;14.40;99.90
1626;DHT22;806;48.770;9.156;2023-04-24T12:04:18;14.30;99.90
1626;DHT22;806;48.770;9.156;2023-04-24T12:07:02;14.70;99.90
1626;DHT22;806;48.770;9.156;2023-04-24T12:09:40;15.30;99.90
1626;DHT22;806;48.770;9.156;2023-04-24T12:12:08;15.10;99.90
1626;DHT22;806;48.770;9.156;2023-04-24T12:14:43;15.30;99.90
1626;DHT22;806;48.770;9.156;2023-04-24T12:17:10;14.60;99.90
1626;DHT22;806;48.770;9.156;2023-04-24T12:19:37;14.20;99.90
1626;DHT22;806;48.770;9.156;2023-04-24T12:22:06;14.20;99.90
1626;DHT22;806;48.770;9.156;2023-04-24T12:24:33;13.90;99.90
1626;DHT22;806;48.770;9.156;2023-04-24T12:27:00;13.70;99.90
1626;DHT22;806;48.770;9.156;2023-04-24T12:29:28;13.90;99.90
1626;DHT22;806;48.770;9.156;2023-04-24T12:31:55;14.20;99.90
1626;DHT22;806;48.770;9.156;2023-04-24T12:34:23;14.20;99.90
1626;DHT22;806;48.770;9.156;2023-04-24T12:36:51;14.10;99.90
1626;DHT22;806;48.770;9.156;2023-04-24T12:39:20;13.90;99.90
1626;DHT22;806;48.770;9.156;2023-04-24T12:41:54;14.00;99.90
1626;DHT22;806;48.770;9.156;2023-04-24T12:44:29;14.50;99.90
1626;DHT22;806;48.770;9.156;2023-04-24T12:46:57;14.70;99.90
1626;DHT22;806;48.770;9.156;2023-04-24T12:49:24;14.40;99.90
1626;DHT22;806;48.770;9.156;2023-04-24T12:51:51;14.00;99.90
1626;DHT22;806;48.770;9.156;2023-04-24T12:54:20;14.10;99.90
1626;DHT22;806;48.770;9.156;2023-04-24T12:56:47;14.20;99.90
1626;DHT22;806;48.770;9.156;2023-04-24T12:59:14;14.20;99.90
1626;DHT22;806;48.770;9.156;2023-04-24T13:01:41;14.00;99.90
1626;DHT22;806;48.770;9.156;2023-04-24T13:04:08;13.60;99.90
1626;DHT22;806;48.770;9.156;2023-04-24T13:06:35;13.40;99.90
1626;DHT22;806;48.770;9.156;2023-04-24T13:09:02;13.40;99.90
1626;DHT22;806;48.770;9.156;2023-04-24T13:11:31;13.50;99.90
1626;DHT22;806;48.770;9.156;2023-04-24T13:13:58;13.30;99.90
1626;DHT22;806;48.770;9.156;2023-04-24T13:16:25;13.20;99.90
1626;DHT22;806;48.770;9.156;2023-04-24T13:18:52;13.20;99.90
1626;DHT22;806;48.770;9.156;2023-04-24T13:21:19;13.40;99.90
1626;DHT22;806;48.770;9.156;2023-04-24T13:23:46;13.70;99.90
1626;DHT22;806;48.770;9.156;2023-04-24T13:26:13;14.30;99.90
1626;DHT22;806;48.770;9.156;2023-04-24T13:28:42;14.50;99.90
1626;DHT22;806;48.770;9.156;2023-04-24T13:31:09;14.60;99.90
1626;DHT22;806;48.770;9.156;2023-04-24T13:33:36;14.30;99.90
1626;DHT22;806;48.770;9.156;2023-04-24T13:36:03;13.90;99.90
1626;DHT22;806;48.770;9.156;2023-04-24T13:38:30;13.50;99.90
1626;DHT22;806;48.770;9.156;2023-04-24T13:40:58;13.30;99.90
1626;DHT22;806;48.770;9.156;2023-04-24T13:43:25;13.30;99.90
1626;DHT22;806;48.770;9.156;2023-04-24T13:45:53;13.40;99.90
1626;DHT22;806;48.770;9.156;2023-04-24T13:48:20;13.20;99.90
1626;DHT22;806;48.770;9.156;2023-04-24T13:50:48;13.10;99.90
1626;DHT22;806;48.770;9.156;2023-04-24T13:53:15;12.80;99.90
1626;DHT22;806;48.770;9.156;2023-04-24T13:55:42;12.70;99.90
1626;DHT22;806;48.770;9.156;2023-04-24T13:58:10;12.50;99.90
1626;DHT22;806;48.770;9.156;2023-04-24T14:00:37;12.60;99.90
1626;DHT22;806;48.770;9.156;2023-04-24T14:03:05;12.60;99.90
1626;DHT22;806;48.770;9.156;2023-04-24T14:05:32;12.90;99.90
1626;DHT22;806;48.770;9.156;2023-04-24T14:07:59;13.10;99.90
1626;DHT22;806;48.770;9.156;2023-04-24T14:10:26;13.00;99.90
1626;DHT22;806;48.770;9.156;2023-04-24T14:12:53;12.90;99.90
1626;DHT22;806;48.770;9.156;2023-04-24T14:15:20;13.00;99.90
1626;DHT22;806;48.770;9.156;2023-04-24T14:17:48;12.90;99.90
1626;DHT22;806;48.770;9.156;2023-04-24T14:20:16;13.00;99.90
1626;DHT22;806;48.770;9.156;2023-04-24T14:22:43;13.20;99.90
1626;DHT22;806;48.770;9.156;2023-04-24T14:25:11;13.40;99.90
1626;DHT22;806;48.770;9.156;2023-04-24T14:27:38;13.50;99.90
1626;DHT22;806;48.770;9.156;2023-04-24T14:30:07;13.60;99.90
1626;DHT22;806;48.770;9.156;2023-04-24T14:32:34;13.30;99.90
1626;DHT22;806;48.770;9.156;2023-04-24T14:35:01;13.40;99.90
1626;DHT22;806;48.770;9.156;2023-04-24T14:37:30;13.50;99.90
1626;DHT22;806;48.770;9.156;2023-04-24T14:39:57;13.40;99.90
1626;DHT22;806;48.770;9.156;2023-04-24T14:42:24;13.30;99.90
1626;DHT22;806;48.770;9.156;2023-04-24T14:44:51;13.20;99.90
1626;DHT22;806;48.770;9.156;2023-04-24T14:47:18;13.30;99.90
1626;DHT22;806;48.770;9.156;2023-04-24T14:49:46;13.10;99.90
1626;DHT22;806;48.770;9.156;2023-04-24T14:52:13;13.30;99.90
1626;DHT22;806;48.770;9.156;2023-04-24T14:54:43;13.50;99.90
1626;DHT22;806;48.770;9.156;2023-04-24T14:57:10;13.70;99.90
1626;DHT22;806;48.770;9.156;2023-04-24T14:59:37;13.80;99.90
1626;DHT22;806;48.770;9.156;2023-04-24T15:02:04;13.90;99.90
1626;DHT22;806;48.770;9.156;2023-04-24T15:04:31;14.10;99.90
1626;DHT22;806;48.770;9.156;2023-04-24T15:06:58;13.90;99.90
1626;DHT22;806;48.770;9.156;2023-04-24T15:09:26;13.70;99.90
1626;DHT22;806;48.770;9.156;2023-04-24T15:11:55;13.60;99.90
1626;DHT22;806;48.770;9.156;2023-04-24T15:14:22;13.60;99.90
1626;DHT22;806;48.770;9.156;2023-04-24T15:16:49;13.50;99.90
1626;DHT22;806;48.770;9.156;2023-04-24T15:19:16;13.30;99.90
1626;DHT22;806;48.770;9.156;2023-04-24T15:21:43;13.30;99.90
1626;DHT22;806;48.770;9.156;2023-04-24T15:24:10;13.40;99.90
1626;DHT22;806;48.770;9.156;2023-04-24T15:26:37;13.30;99.90
1626;DHT22;806;48.770;9.156;2023-04-24T15:29:06;13.30;99.90
1626;DHT22;806;48.770;9.156;2023-04-24T15:31:33;13.30;99.90
1626;DHT22;806;48.770;9.156;2023-04-24T15:34:00;13.10;99.90
1626;DHT22;806;48.770;9.156;2023-04-24T15:36:27;12.90;99.90
1626;DHT22;806;48.770;9.156;2023-04-24T15:38:54;13.00;99.90
1626;DHT22;806;48.770;9.156;2023-04-24T15:41:21;12.90;99.90
1626;DHT22;806;48.770;9.156;2023-04-24T15:43:48;12.90;99.90
1626;DHT22;806;48.770;9.156;2023-04-24T15:46:16;12.80;99.90
1626;DHT22;806;48.770;9.156;2023-04-24T15:48:44;12.60;99.90
1626;DHT22;806;48.770;9.156;2023-04-24T15:51:11;12.40;99.90
1626;DHT22;806;48.770;9.156;2023-04-24T15:53:39;12.20;99.90
1626;DHT22;806;48.770;9.156;2023-04-24T15:56:06;12.00;99.90
1626;DHT22;806;48.770;9.156;2023-04-24T15:58:34;11.90;99.90
1626;DHT22;806;48.770;9.156;2023-04-24T16:01:01;12.00;99.90
1626;DHT22;806;48.770;9.156;2023-04-24T16:03:29;12.00;99.90
1626;DHT22;806;48.770;9.156;2023-04-24T16:05:56;12.00;99.90
1626;DHT22;806;48.770;9.156;2023-04-24T16:08:23;12.10;99.90
1626;DHT22;806;48.770;9.156;2023-04-24T16:10:50;12.10;99.90
1626;DHT22;806;48.770;9.156;2023-04-24T16:13:18;12.20;99.90
1626;DHT22;806;48.770;9.156;2023-04-24T16:15:45;12.20;99.90
1626;DHT22;806;48.770;9.156;2023-04-24T16:18:12;12.40;99.90
1626;DHT22;806;48.770;9.156;2023-04-24T16:20:41;12.50;99.90
1626;DHT22;806;48.770;9.156;2023-04-24T16:23:08;12.40;99.90